Terminal Aerodrome Forecast
Issued by NWS

Home | Current Version | Previous Version | Text Only | Print | Product List | Glossary Off
Versions: 1 2 3 4 5 6 7 8 9 10 11 12 13 14 15 16 17 18 19 20

000
FTUS43 KICT 190250 AAA
TAFRSL
TAF AMD
KRSL 190250Z 1903/1924 VRB03KT 6SM BR OVC012
     FM190500 15005KT 4SM BR OVC008
     FM190800 17005KT 1/2SM FG OVC003
     FM191500 18006KT 4SM BR OVC007
     FM191800 19009KT P6SM BKN015 OVC050=

USA.gov is the U.S. government's official web portal to all federal, state and local government web resources and services.